sensor_id;sensor_type;location;lat;lon;timestamp;P1;durP1;ratioP1;P2;durP2;ratioP2
12042;SDS011;6082;49.306;12.862;2022-09-27T00:01:15;3.10;;;2.37;;
12042;SDS011;6082;49.306;12.862;2022-09-27T00:03:41;4.23;;;2.97;;
12042;SDS011;6082;49.306;12.862;2022-09-27T00:06:10;3.97;;;2.70;;
12042;SDS011;6082;49.306;12.862;2022-09-27T00:08:37;3.83;;;2.23;;
12042;SDS011;6082;49.306;12.862;2022-09-27T00:11:05;5.83;;;2.53;;
12042;SDS011;6082;49.306;12.862;2022-09-27T00:13:31;3.37;;;2.33;;
12042;SDS011;6082;49.306;12.862;2022-09-27T00:15:58;3.10;;;2.13;;
12042;SDS011;6082;49.306;12.862;2022-09-27T00:18:25;2.63;;;1.80;;
12042;SDS011;6082;49.306;12.862;2022-09-27T00:20:51;2.83;;;2.10;;
12042;SDS011;6082;49.306;12.862;2022-09-27T00:23:18;4.10;;;2.33;;
12042;SDS011;6082;49.306;12.862;2022-09-27T00:25:57;3.80;;;2.50;;
12042;SDS011;6082;49.306;12.862;2022-09-27T00:28:23;3.47;;;2.30;;
12042;SDS011;6082;49.306;12.862;2022-09-27T00:30:50;4.07;;;2.37;;
12042;SDS011;6082;49.306;12.862;2022-09-27T00:33:16;2.93;;;1.93;;
12042;SDS011;6082;49.306;12.862;2022-09-27T00:35:42;2.77;;;2.07;;
12042;SDS011;6082;49.306;12.862;2022-09-27T00:38:09;3.13;;;2.37;;
12042;SDS011;6082;49.306;12.862;2022-09-27T00:40:35;3.33;;;2.10;;
12042;SDS011;6082;49.306;12.862;2022-09-27T00:43:02;2.27;;;1.90;;
12042;SDS011;6082;49.306;12.862;2022-09-27T00:45:28;3.47;;;2.20;;
12042;SDS011;6082;49.306;12.862;2022-09-27T00:47:58;5.63;;;2.30;;
12042;SDS011;6082;49.306;12.862;2022-09-27T00:50:29;2.33;;;2.00;;
12042;SDS011;6082;49.306;12.862;2022-09-27T00:55:25;1.83;;;1.67;;
12042;SDS011;6082;49.306;12.862;2022-09-27T00:57:53;2.53;;;1.80;;
12042;SDS011;6082;49.306;12.862;2022-09-27T01:00:19;2.60;;;1.87;;
12042;SDS011;6082;49.306;12.862;2022-09-27T01:02:48;2.37;;;1.73;;
12042;SDS011;6082;49.306;12.862;2022-09-27T01:05:15;2.20;;;1.70;;
12042;SDS011;6082;49.306;12.862;2022-09-27T01:07:42;4.30;;;2.17;;
12042;SDS011;6082;49.306;12.862;2022-09-27T01:10:08;3.57;;;2.10;;
12042;SDS011;6082;49.306;12.862;2022-09-27T01:12:44;4.10;;;2.40;;
12042;SDS011;6082;49.306;12.862;2022-09-27T01:28:21;2.67;;;2.10;;
12042;SDS011;6082;49.306;12.862;2022-09-27T01:33:57;3.33;;;1.87;;
12042;SDS011;6082;49.306;12.862;2022-09-27T01:44:08;2.80;;;2.10;;
12042;SDS011;6082;49.306;12.862;2022-09-27T01:46:38;3.27;;;1.80;;
12042;SDS011;6082;49.306;12.862;2022-09-27T01:49:11;2.27;;;1.77;;
12042;SDS011;6082;49.306;12.862;2022-09-27T01:51:43;3.23;;;2.00;;
12042;SDS011;6082;49.306;12.862;2022-09-27T01:54:13;1.60;;;1.43;;
12042;SDS011;6082;49.306;12.862;2022-09-27T01:56:42;2.83;;;2.00;;
12042;SDS011;6082;49.306;12.862;2022-09-27T01:59:10;1.90;;;1.50;;
12042;SDS011;6082;49.306;12.862;2022-09-27T02:01:38;2.53;;;2.10;;
12042;SDS011;6082;49.306;12.862;2022-09-27T02:04:05;3.47;;;1.93;;
12042;SDS011;6082;49.306;12.862;2022-09-27T02:06:35;2.30;;;1.50;;
12042;SDS011;6082;49.306;12.862;2022-09-27T02:09:03;2.27;;;1.87;;
12042;SDS011;6082;49.306;12.862;2022-09-27T02:11:31;2.37;;;1.70;;
12042;SDS011;6082;49.306;12.862;2022-09-27T02:19:12;3.83;;;2.00;;
12042;SDS011;6082;49.306;12.862;2022-09-27T02:24:12;2.27;;;1.57;;
12042;SDS011;6082;49.306;12.862;2022-09-27T02:26:40;3.00;;;1.60;;
12042;SDS011;6082;49.306;12.862;2022-09-27T02:29:21;2.77;;;1.47;;
12042;SDS011;6082;49.306;12.862;2022-09-27T02:31:48;2.40;;;1.23;;
12042;SDS011;6082;49.306;12.862;2022-09-27T02:36:44;2.03;;;1.20;;
12042;SDS011;6082;49.306;12.862;2022-09-27T02:39:10;2.17;;;1.50;;
12042;SDS011;6082;49.306;12.862;2022-09-27T02:41:36;2.07;;;1.30;;
12042;SDS011;6082;49.306;12.862;2022-09-27T02:44:03;1.87;;;1.20;;
12042;SDS011;6082;49.306;12.862;2022-09-27T02:46:35;1.73;;;1.13;;
12042;SDS011;6082;49.306;12.862;2022-09-27T02:52:19;4.60;;;1.20;;
12042;SDS011;6082;49.306;12.862;2022-09-27T02:57:17;1.40;;;1.17;;
12042;SDS011;6082;49.306;12.862;2022-09-27T03:00:09;1.73;;;1.40;;
12042;SDS011;6082;49.306;12.862;2022-09-27T03:05:04;2.50;;;1.67;;
12042;SDS011;6082;49.306;12.862;2022-09-27T03:07:31;1.97;;;1.67;;
12042;SDS011;6082;49.306;12.862;2022-09-27T03:09:58;1.73;;;1.30;;
12042;SDS011;6082;49.306;12.862;2022-09-27T03:12:25;2.00;;;1.50;;
12042;SDS011;6082;49.306;12.862;2022-09-27T03:14:54;3.33;;;1.30;;
12042;SDS011;6082;49.306;12.862;2022-09-27T03:17:21;1.47;;;1.07;;
12042;SDS011;6082;49.306;12.862;2022-09-27T03:19:48;3.53;;;1.40;;
12042;SDS011;6082;49.306;12.862;2022-09-27T03:22:14;1.57;;;1.30;;
12042;SDS011;6082;49.306;12.862;2022-09-27T03:24:40;1.67;;;1.37;;
12042;SDS011;6082;49.306;12.862;2022-09-27T03:27:06;1.47;;;1.30;;
12042;SDS011;6082;49.306;12.862;2022-09-27T03:29:34;2.00;;;1.07;;
12042;SDS011;6082;49.306;12.862;2022-09-27T03:32:00;1.33;;;1.10;;
12042;SDS011;6082;49.306;12.862;2022-09-27T03:34:27;1.30;;;1.10;;
12042;SDS011;6082;49.306;12.862;2022-09-27T03:36:54;1.20;;;0.93;;
12042;SDS011;6082;49.306;12.862;2022-09-27T03:39:20;2.53;;;1.30;;
12042;SDS011;6082;49.306;12.862;2022-09-27T03:41:46;2.00;;;1.00;;
12042;SDS011;6082;49.306;12.862;2022-09-27T03:44:12;2.07;;;1.20;;
12042;SDS011;6082;49.306;12.862;2022-09-27T03:46:38;1.67;;;0.93;;
12042;SDS011;6082;49.306;12.862;2022-09-27T03:49:04;1.70;;;1.00;;
12042;SDS011;6082;49.306;12.862;2022-09-27T03:51:30;2.07;;;1.07;;
12042;SDS011;6082;49.306;12.862;2022-09-27T03:53:57;1.30;;;1.00;;
12042;SDS011;6082;49.306;12.862;2022-09-27T03:56:23;2.20;;;1.00;;
12042;SDS011;6082;49.306;12.862;2022-09-27T03:58:49;1.67;;;1.13;;
12042;SDS011;6082;49.306;12.862;2022-09-27T04:01:15;1.70;;;1.10;;
12042;SDS011;6082;49.306;12.862;2022-09-27T04:03:41;1.07;;;0.97;;
12042;SDS011;6082;49.306;12.862;2022-09-27T04:06:07;3.03;;;1.00;;
12042;SDS011;6082;49.306;12.862;2022-09-27T04:08:33;1.03;;;0.90;;
12042;SDS011;6082;49.306;12.862;2022-09-27T04:11:00;1.00;;;0.90;;
12042;SDS011;6082;49.306;12.862;2022-09-27T04:13:27;1.13;;;0.97;;
12042;SDS011;6082;49.306;12.862;2022-09-27T04:15:53;1.47;;;1.10;;
12042;SDS011;6082;49.306;12.862;2022-09-27T04:18:20;1.37;;;1.00;;
12042;SDS011;6082;49.306;12.862;2022-09-27T04:20:46;3.43;;;1.00;;
12042;SDS011;6082;49.306;12.862;2022-09-27T04:23:12;1.60;;;1.07;;
12042;SDS011;6082;49.306;12.862;2022-09-27T04:25:38;0.70;;;0.70;;
12042;SDS011;6082;49.306;12.862;2022-09-27T04:28:04;0.80;;;0.80;;
12042;SDS011;6082;49.306;12.862;2022-09-27T04:30:30;1.10;;;0.80;;
12042;SDS011;6082;49.306;12.862;2022-09-27T04:32:56;2.70;;;0.80;;
12042;SDS011;6082;49.306;12.862;2022-09-27T04:35:23;0.90;;;0.80;;
12042;SDS011;6082;49.306;12.862;2022-09-27T04:38:07;1.37;;;0.80;;
12042;SDS011;6082;49.306;12.862;2022-09-27T04:40:33;2.43;;;0.90;;
12042;SDS011;6082;49.306;12.862;2022-09-27T04:42:59;0.97;;;0.70;;
12042;SDS011;6082;49.306;12.862;2022-09-27T04:45:26;1.10;;;0.77;;
12042;SDS011;6082;49.306;12.862;2022-09-27T04:47:52;0.80;;;0.80;;
12042;SDS011;6082;49.306;12.862;2022-09-27T04:50:18;3.20;;;2.33;;
12042;SDS011;6082;49.306;12.862;2022-09-27T04:52:53;8.70;;;4.07;;
12042;SDS011;6082;49.306;12.862;2022-09-27T04:55:20;5.80;;;3.83;;
12042;SDS011;6082;49.306;12.862;2022-09-27T04:57:46;3.57;;;2.83;;
12042;SDS011;6082;49.306;12.862;2022-09-27T05:00:13;6.03;;;4.07;;
12042;SDS011;6082;49.306;12.862;2022-09-27T05:02:41;4.90;;;3.27;;
12042;SDS011;6082;49.306;12.862;2022-09-27T05:05:07;2.57;;;2.30;;
12042;SDS011;6082;49.306;12.862;2022-09-27T05:07:34;3.10;;;2.33;;
12042;SDS011;6082;49.306;12.862;2022-09-27T05:10:00;2.13;;;1.63;;
12042;SDS011;6082;49.306;12.862;2022-09-27T05:12:26;2.47;;;2.10;;
12042;SDS011;6082;49.306;12.862;2022-09-27T05:14:53;2.60;;;2.30;;
12042;SDS011;6082;49.306;12.862;2022-09-27T05:17:19;1.50;;;1.20;;
12042;SDS011;6082;49.306;12.862;2022-09-27T05:19:46;1.33;;;0.93;;
12042;SDS011;6082;49.306;12.862;2022-09-27T05:22:13;1.20;;;0.90;;
12042;SDS011;6082;49.306;12.862;2022-09-27T05:24:39;2.40;;;1.30;;
12042;SDS011;6082;49.306;12.862;2022-09-27T05:27:06;0.87;;;0.80;;
12042;SDS011;6082;49.306;12.862;2022-09-27T05:29:33;1.63;;;1.10;;
12042;SDS011;6082;49.306;12.862;2022-09-27T05:32:00;2.33;;;1.33;;
12042;SDS011;6082;49.306;12.862;2022-09-27T05:34:26;1.00;;;0.90;;
12042;SDS011;6082;49.306;12.862;2022-09-27T05:36:52;1.43;;;1.10;;
12042;SDS011;6082;49.306;12.862;2022-09-27T05:39:18;1.17;;;1.00;;
12042;SDS011;6082;49.306;12.862;2022-09-27T05:41:45;0.97;;;0.80;;
12042;SDS011;6082;49.306;12.862;2022-09-27T05:44:14;3.30;;;1.13;;
12042;SDS011;6082;49.306;12.862;2022-09-27T05:46:40;1.03;;;0.90;;
12042;SDS011;6082;49.306;12.862;2022-09-27T05:49:06;0.80;;;0.80;;
12042;SDS011;6082;49.306;12.862;2022-09-27T05:51:33;1.00;;;0.80;;
12042;SDS011;6082;49.306;12.862;2022-09-27T05:53:59;1.50;;;1.10;;
12042;SDS011;6082;49.306;12.862;2022-09-27T05:56:25;1.30;;;1.13;;
12042;SDS011;6082;49.306;12.862;2022-09-27T05:58:52;1.93;;;1.27;;
12042;SDS011;6082;49.306;12.862;2022-09-27T06:01:18;1.00;;;0.80;;
12042;SDS011;6082;49.306;12.862;2022-09-27T06:03:44;0.97;;;0.87;;
12042;SDS011;6082;49.306;12.862;2022-09-27T06:06:11;1.63;;;1.30;;
12042;SDS011;6082;49.306;12.862;2022-09-27T06:08:38;0.90;;;0.80;;
12042;SDS011;6082;49.306;12.862;2022-09-27T06:11:06;0.70;;;0.70;;
12042;SDS011;6082;49.306;12.862;2022-09-27T06:13:33;1.27;;;0.90;;
12042;SDS011;6082;49.306;12.862;2022-09-27T06:16:00;0.97;;;0.83;;
12042;SDS011;6082;49.306;12.862;2022-09-27T06:18:27;1.13;;;0.80;;
12042;SDS011;6082;49.306;12.862;2022-09-27T06:20:53;1.23;;;1.00;;
12042;SDS011;6082;49.306;12.862;2022-09-27T06:23:21;0.80;;;0.80;;
12042;SDS011;6082;49.306;12.862;2022-09-27T06:25:48;1.00;;;0.90;;
12042;SDS011;6082;49.306;12.862;2022-09-27T06:28:15;1.20;;;0.83;;
12042;SDS011;6082;49.306;12.862;2022-09-27T06:30:42;1.03;;;0.93;;
12042;SDS011;6082;49.306;12.862;2022-09-27T06:33:09;1.70;;;1.17;;
12042;SDS011;6082;49.306;12.862;2022-09-27T06:35:36;0.97;;;0.80;;
12042;SDS011;6082;49.306;12.862;2022-09-27T06:38:03;1.20;;;1.10;;
12042;SDS011;6082;49.306;12.862;2022-09-27T06:40:29;0.87;;;0.87;;
12042;SDS011;6082;49.306;12.862;2022-09-27T06:43:02;1.20;;;1.10;;
12042;SDS011;6082;49.306;12.862;2022-09-27T06:45:29;2.30;;;1.97;;
12042;SDS011;6082;49.306;12.862;2022-09-27T06:47:56;2.70;;;1.63;;
12042;SDS011;6082;49.306;12.862;2022-09-27T06:50:22;2.37;;;1.87;;
12042;SDS011;6082;49.306;12.862;2022-09-27T06:52:48;2.20;;;1.70;;
12042;SDS011;6082;49.306;12.862;2022-09-27T06:55:18;2.20;;;1.90;;
12042;SDS011;6082;49.306;12.862;2022-09-27T06:57:44;3.83;;;2.80;;
12042;SDS011;6082;49.306;12.862;2022-09-27T07:00:28;2.00;;;1.60;;
12042;SDS011;6082;49.306;12.862;2022-09-27T07:02:55;2.30;;;2.10;;
12042;SDS011;6082;49.306;12.862;2022-09-27T07:05:28;2.30;;;1.67;;
12042;SDS011;6082;49.306;12.862;2022-09-27T07:07:57;1.77;;;1.60;;
12042;SDS011;6082;49.306;12.862;2022-09-27T07:10:24;1.83;;;1.53;;
12042;SDS011;6082;49.306;12.862;2022-09-27T07:12:51;2.30;;;1.73;;
12042;SDS011;6082;49.306;12.862;2022-09-27T07:15:17;2.27;;;1.63;;
12042;SDS011;6082;49.306;12.862;2022-09-27T07:17:47;2.03;;;1.70;;
12042;SDS011;6082;49.306;12.862;2022-09-27T07:20:20;1.40;;;1.30;;
12042;SDS011;6082;49.306;12.862;2022-09-27T07:22:46;1.93;;;1.40;;
12042;SDS011;6082;49.306;12.862;2022-09-27T07:25:13;1.60;;;1.50;;
12042;SDS011;6082;49.306;12.862;2022-09-27T07:27:39;1.30;;;1.20;;
12042;SDS011;6082;49.306;12.862;2022-09-27T07:30:06;2.17;;;1.67;;
12042;SDS011;6082;49.306;12.862;2022-09-27T07:32:33;2.03;;;1.70;;
12042;SDS011;6082;49.306;12.862;2022-09-27T07:35:02;1.50;;;1.40;;
12042;SDS011;6082;49.306;12.862;2022-09-27T07:37:33;2.27;;;1.57;;
12042;SDS011;6082;49.306;12.862;2022-09-27T07:39:59;2.87;;;2.00;;
12042;SDS011;6082;49.306;12.862;2022-09-27T07:42:26;2.40;;;1.53;;
12042;SDS011;6082;49.306;12.862;2022-09-27T07:44:55;1.50;;;1.40;;
12042;SDS011;6082;49.306;12.862;2022-09-27T07:47:21;1.37;;;0.90;;
12042;SDS011;6082;49.306;12.862;2022-09-27T07:49:51;1.70;;;1.13;;
12042;SDS011;6082;49.306;12.862;2022-09-27T07:52:18;1.57;;;1.10;;
12042;SDS011;6082;49.306;12.862;2022-09-27T07:54:45;3.60;;;2.00;;
12042;SDS011;6082;49.306;12.862;2022-09-27T07:57:11;1.57;;;0.80;;
12042;SDS011;6082;49.306;12.862;2022-09-27T07:59:38;1.30;;;0.90;;
12042;SDS011;6082;49.306;12.862;2022-09-27T08:02:05;2.23;;;0.80;;
12042;SDS011;6082;49.306;12.862;2022-09-27T08:04:31;1.27;;;1.00;;
12042;SDS011;6082;49.306;12.862;2022-09-27T08:06:57;0.50;;;0.50;;
12042;SDS011;6082;49.306;12.862;2022-09-27T08:09:23;4.47;;;1.03;;
12042;SDS011;6082;49.306;12.862;2022-09-27T08:11:50;2.20;;;1.10;;
12042;SDS011;6082;49.306;12.862;2022-09-27T08:14:16;2.17;;;1.10;;
12042;SDS011;6082;49.306;12.862;2022-09-27T08:16:42;2.40;;;1.10;;
12042;SDS011;6082;49.306;12.862;2022-09-27T08:19:09;1.40;;;0.87;;
12042;SDS011;6082;49.306;12.862;2022-09-27T08:21:35;1.90;;;1.17;;
12042;SDS011;6082;49.306;12.862;2022-09-27T08:24:01;1.37;;;0.73;;
12042;SDS011;6082;49.306;12.862;2022-09-27T08:26:28;0.90;;;0.63;;
12042;SDS011;6082;49.306;12.862;2022-09-27T08:28:54;2.23;;;1.10;;
12042;SDS011;6082;49.306;12.862;2022-09-27T08:31:20;0.80;;;0.60;;
12042;SDS011;6082;49.306;12.862;2022-09-27T08:33:51;1.60;;;0.83;;
12042;SDS011;6082;49.306;12.862;2022-09-27T08:36:20;1.80;;;0.93;;
12042;SDS011;6082;49.306;12.862;2022-09-27T08:38:48;1.00;;;0.90;;
12042;SDS011;6082;49.306;12.862;2022-09-27T08:48:52;1.20;;;0.87;;
12042;SDS011;6082;49.306;12.862;2022-09-27T08:51:26;1.27;;;1.00;;
12042;SDS011;6082;49.306;12.862;2022-09-27T08:56:46;0.97;;;0.60;;
12042;SDS011;6082;49.306;12.862;2022-09-27T08:59:18;0.80;;;0.63;;
12042;SDS011;6082;49.306;12.862;2022-09-27T09:01:49;1.07;;;0.80;;
12042;SDS011;6082;49.306;12.862;2022-09-27T09:04:19;1.10;;;0.80;;
12042;SDS011;6082;49.306;12.862;2022-09-27T09:09:23;1.00;;;0.90;;
12042;SDS011;6082;49.306;12.862;2022-09-27T09:11:57;1.30;;;0.63;;
12042;SDS011;6082;49.306;12.862;2022-09-27T09:14:53;0.60;;;0.50;;
12042;SDS011;6082;49.306;12.862;2022-09-27T09:17:26;2.97;;;0.60;;
12042;SDS011;6082;49.306;12.862;2022-09-27T09:30:34;0.40;;;0.40;;
12042;SDS011;6082;49.306;12.862;2022-09-27T09:33:24;0.60;;;0.60;;
12042;SDS011;6082;49.306;12.862;2022-09-27T09:35:54;0.40;;;0.40;;
12042;SDS011;6082;49.306;12.862;2022-09-27T09:41:54;0.60;;;0.60;;
12042;SDS011;6082;49.306;12.862;2022-09-27T09:46:35;0.50;;;0.50;;
12042;SDS011;6082;49.306;12.862;2022-09-27T09:49:03;1.10;;;0.90;;
12042;SDS011;6082;49.306;12.862;2022-09-27T09:51:33;0.80;;;0.80;;
12042;SDS011;6082;49.306;12.862;2022-09-27T09:54:06;0.40;;;0.40;;
12042;SDS011;6082;49.306;12.862;2022-09-27T09:56:44;1.30;;;0.77;;
12042;SDS011;6082;49.306;12.862;2022-09-27T10:01:44;2.33;;;1.47;;
12042;SDS011;6082;49.306;12.862;2022-09-27T10:04:22;2.73;;;1.77;;
12042;SDS011;6082;49.306;12.862;2022-09-27T10:06:49;1.80;;;0.60;;
12042;SDS011;6082;49.306;12.862;2022-09-27T10:09:16;1.37;;;0.80;;
12042;SDS011;6082;49.306;12.862;2022-09-27T10:11:44;1.00;;;0.80;;
12042;SDS011;6082;49.306;12.862;2022-09-27T10:14:14;1.20;;;0.93;;
12042;SDS011;6082;49.306;12.862;2022-09-27T10:16:41;5.93;;;2.83;;
12042;SDS011;6082;49.306;12.862;2022-09-27T10:19:09;4.13;;;2.40;;
12042;SDS011;6082;49.306;12.862;2022-09-27T10:21:37;5.13;;;2.87;;
12042;SDS011;6082;49.306;12.862;2022-09-27T10:24:11;2.77;;;1.87;;
12042;SDS011;6082;49.306;12.862;2022-09-27T10:26:38;2.17;;;1.77;;
12042;SDS011;6082;49.306;12.862;2022-09-27T10:31:48;1.10;;;1.00;;
12042;SDS011;6082;49.306;12.862;2022-09-27T10:34:29;1.20;;;1.10;;
12042;SDS011;6082;49.306;12.862;2022-09-27T10:37:03;2.93;;;1.80;;
12042;SDS011;6082;49.306;12.862;2022-09-27T10:39:30;0.70;;;0.70;;
12042;SDS011;6082;49.306;12.862;2022-09-27T10:41:56;1.13;;;0.90;;
12042;SDS011;6082;49.306;12.862;2022-09-27T10:44:26;2.23;;;0.70;;
12042;SDS011;6082;49.306;12.862;2022-09-27T10:47:26;0.60;;;0.57;;
12042;SDS011;6082;49.306;12.862;2022-09-27T10:49:47;1.03;;;0.70;;
12042;SDS011;6082;49.306;12.862;2022-09-27T10:52:20;1.10;;;1.00;;
12042;SDS011;6082;49.306;12.862;2022-09-27T10:54:55;0.57;;;0.57;;
12042;SDS011;6082;49.306;12.862;2022-09-27T10:57:22;1.07;;;0.70;;
12042;SDS011;6082;49.306;12.862;2022-09-27T11:02:32;2.50;;;0.70;;
12042;SDS011;6082;49.306;12.862;2022-09-27T11:07:33;4.00;;;0.70;;
12042;SDS011;6082;49.306;12.862;2022-09-27T11:10:00;0.40;;;0.40;;
12042;SDS011;6082;49.306;12.862;2022-09-27T11:12:29;0.40;;;0.40;;
12042;SDS011;6082;49.306;12.862;2022-09-27T11:15:05;0.77;;;0.63;;
12042;SDS011;6082;49.306;12.862;2022-09-27T11:17:42;0.87;;;0.67;;
12042;SDS011;6082;49.306;12.862;2022-09-27T11:25:14;1.70;;;1.37;;
12042;SDS011;6082;49.306;12.862;2022-09-27T11:27:48;0.93;;;0.70;;
12042;SDS011;6082;49.306;12.862;2022-09-27T11:30:19;1.40;;;1.20;;
12042;SDS011;6082;49.306;12.862;2022-09-27T11:35:42;1.00;;;0.90;;
12042;SDS011;6082;49.306;12.862;2022-09-27T11:45:39;1.20;;;1.10;;
12042;SDS011;6082;49.306;12.862;2022-09-27T11:58:30;0.60;;;0.60;;
12042;SDS011;6082;49.306;12.862;2022-09-27T12:04:09;1.50;;;1.13;;
12042;SDS011;6082;49.306;12.862;2022-09-27T12:09:09;1.00;;;0.80;;
12042;SDS011;6082;49.306;12.862;2022-09-27T12:14:04;1.53;;;1.00;;
12042;SDS011;6082;49.306;12.862;2022-09-27T12:16:31;1.20;;;0.90;;
12042;SDS011;6082;49.306;12.862;2022-09-27T12:18:58;2.33;;;1.30;;
12042;SDS011;6082;49.306;12.862;2022-09-27T12:21:26;4.33;;;1.17;;
12042;SDS011;6082;49.306;12.862;2022-09-27T12:23:55;1.00;;;0.90;;
12042;SDS011;6082;49.306;12.862;2022-09-27T12:28:58;2.00;;;1.07;;
12042;SDS011;6082;49.306;12.862;2022-09-27T12:31:31;1.73;;;1.23;;
12042;SDS011;6082;49.306;12.862;2022-09-27T12:36:33;0.93;;;0.80;;
12042;SDS011;6082;49.306;12.862;2022-09-27T12:41:36;1.37;;;1.03;;
12042;SDS011;6082;49.306;12.862;2022-09-27T12:44:04;0.80;;;0.80;;
12042;SDS011;6082;49.306;12.862;2022-09-27T12:46:46;1.90;;;1.20;;
12042;SDS011;6082;49.306;12.862;2022-09-27T12:49:35;2.37;;;1.20;;
12042;SDS011;6082;49.306;12.862;2022-09-27T12:52:08;1.73;;;1.30;;
12042;SDS011;6082;49.306;12.862;2022-09-27T13:12:54;2.93;;;2.50;;
12042;SDS011;6082;49.306;12.862;2022-09-27T13:15:24;1.60;;;1.33;;
12042;SDS011;6082;49.306;12.862;2022-09-27T13:17:53;1.23;;;1.13;;
12042;SDS011;6082;49.306;12.862;2022-09-27T13:22:46;3.23;;;1.50;;
12042;SDS011;6082;49.306;12.862;2022-09-27T13:26:19;3.80;;;1.93;;
12042;SDS011;6082;49.306;12.862;2022-09-27T13:38:30;3.83;;;1.63;;
12042;SDS011;6082;49.306;12.862;2022-09-27T13:41:12;2.70;;;1.83;;
12042;SDS011;6082;49.306;12.862;2022-09-27T13:46:06;2.23;;;1.30;;
12042;SDS011;6082;49.306;12.862;2022-09-27T13:51:16;0.80;;;0.77;;
12042;SDS011;6082;49.306;12.862;2022-09-27T13:53:53;0.97;;;0.93;;
12042;SDS011;6082;49.306;12.862;2022-09-27T13:56:53;1.27;;;1.10;;
12042;SDS011;6082;49.306;12.862;2022-09-27T13:59:20;0.80;;;0.70;;
12042;SDS011;6082;49.306;12.862;2022-09-27T14:02:53;1.00;;;0.87;;
12042;SDS011;6082;49.306;12.862;2022-09-27T14:04:46;1.30;;;0.80;;
12042;SDS011;6082;49.306;12.862;2022-09-27T14:07:14;0.93;;;0.77;;
12042;SDS011;6082;49.306;12.862;2022-09-27T14:09:43;1.97;;;1.77;;
12042;SDS011;6082;49.306;12.862;2022-09-27T14:12:11;2.87;;;2.20;;
12042;SDS011;6082;49.306;12.862;2022-09-27T14:14:46;5.13;;;3.10;;
12042;SDS011;6082;49.306;12.862;2022-09-27T14:17:13;1.70;;;1.50;;
12042;SDS011;6082;49.306;12.862;2022-09-27T14:19:40;1.77;;;1.33;;
12042;SDS011;6082;49.306;12.862;2022-09-27T14:22:12;3.27;;;1.67;;
12042;SDS011;6082;49.306;12.862;2022-09-27T14:29:37;2.63;;;2.00;;
12042;SDS011;6082;49.306;12.862;2022-09-27T14:32:05;2.53;;;2.10;;
12042;SDS011;6082;49.306;12.862;2022-09-27T14:34:33;2.53;;;1.67;;
12042;SDS011;6082;49.306;12.862;2022-09-27T14:36:59;0.73;;;0.70;;
12042;SDS011;6082;49.306;12.862;2022-09-27T14:39:44;2.43;;;1.80;;
12042;SDS011;6082;49.306;12.862;2022-09-27T14:42:18;3.47;;;2.70;;
12042;SDS011;6082;49.306;12.862;2022-09-27T14:44:45;3.57;;;2.83;;
12042;SDS011;6082;49.306;12.862;2022-09-27T14:47:22;3.80;;;2.70;;
12042;SDS011;6082;49.306;12.862;2022-09-27T14:49:58;6.63;;;3.70;;
12042;SDS011;6082;49.306;12.862;2022-09-27T14:52:29;6.33;;;4.23;;
12042;SDS011;6082;49.306;12.862;2022-09-27T14:57:35;7.03;;;4.10;;
12042;SDS011;6082;49.306;12.862;2022-09-27T15:00:19;5.03;;;3.13;;
12042;SDS011;6082;49.306;12.862;2022-09-27T15:02:46;4.53;;;3.37;;
12042;SDS011;6082;49.306;12.862;2022-09-27T15:05:14;3.87;;;2.70;;
12042;SDS011;6082;49.306;12.862;2022-09-27T15:07:42;4.33;;;2.80;;
12042;SDS011;6082;49.306;12.862;2022-09-27T15:10:18;2.20;;;1.90;;
12042;SDS011;6082;49.306;12.862;2022-09-27T15:12:46;2.17;;;1.97;;
12042;SDS011;6082;49.306;12.862;2022-09-27T15:15:14;2.27;;;1.87;;
12042;SDS011;6082;49.306;12.862;2022-09-27T15:17:41;3.30;;;1.97;;
12042;SDS011;6082;49.306;12.862;2022-09-27T15:22:44;4.40;;;2.50;;
12042;SDS011;6082;49.306;12.862;2022-09-27T15:28:26;7.50;;;3.90;;
12042;SDS011;6082;49.306;12.862;2022-09-27T15:30:37;7.30;;;4.23;;
12042;SDS011;6082;49.306;12.862;2022-09-27T15:33:04;4.63;;;3.30;;
12042;SDS011;6082;49.306;12.862;2022-09-27T15:35:31;3.70;;;2.27;;
12042;SDS011;6082;49.306;12.862;2022-09-27T15:38:40;2.27;;;1.60;;
12042;SDS011;6082;49.306;12.862;2022-09-27T15:43:21;2.93;;;2.10;;
12042;SDS011;6082;49.306;12.862;2022-09-27T15:45:55;2.87;;;1.13;;
12042;SDS011;6082;49.306;12.862;2022-09-27T15:48:21;4.43;;;2.00;;
12042;SDS011;6082;49.306;12.862;2022-09-27T15:50:48;6.00;;;2.77;;
12042;SDS011;6082;49.306;12.862;2022-09-27T15:55:59;3.10;;;2.10;;
12042;SDS011;6082;49.306;12.862;2022-09-27T15:58:26;1.40;;;1.30;;
12042;SDS011;6082;49.306;12.862;2022-09-27T16:00:57;2.93;;;1.50;;
12042;SDS011;6082;49.306;12.862;2022-09-27T16:03:24;13.40;;;8.40;;
12042;SDS011;6082;49.306;12.862;2022-09-27T16:05:51;5.37;;;4.13;;
12042;SDS011;6082;49.306;12.862;2022-09-27T16:08:19;3.10;;;1.50;;
12042;SDS011;6082;49.306;12.862;2022-09-27T16:10:47;7.03;;;4.47;;
12042;SDS011;6082;49.306;12.862;2022-09-27T16:13:13;6.57;;;4.47;;
12042;SDS011;6082;49.306;12.862;2022-09-27T16:15:39;8.33;;;6.87;;
12042;SDS011;6082;49.306;12.862;2022-09-27T16:18:06;9.87;;;7.00;;
12042;SDS011;6082;49.306;12.862;2022-09-27T16:20:32;19.00;;;11.20;;
12042;SDS011;6082;49.306;12.862;2022-09-27T16:22:58;15.77;;;9.10;;
12042;SDS011;6082;49.306;12.862;2022-09-27T16:25:25;14.63;;;8.53;;
12042;SDS011;6082;49.306;12.862;2022-09-27T16:27:52;10.03;;;6.77;;
12042;SDS011;6082;49.306;12.862;2022-09-27T16:30:21;9.27;;;6.60;;
12042;SDS011;6082;49.306;12.862;2022-09-27T16:32:48;6.53;;;4.47;;
12042;SDS011;6082;49.306;12.862;2022-09-27T16:35:15;10.77;;;5.90;;
12042;SDS011;6082;49.306;12.862;2022-09-27T16:37:44;9.43;;;5.23;;
12042;SDS011;6082;49.306;12.862;2022-09-27T16:40:11;9.30;;;5.20;;
12042;SDS011;6082;49.306;12.862;2022-09-27T16:42:38;7.03;;;4.37;;
12042;SDS011;6082;49.306;12.862;2022-09-27T16:45:05;9.83;;;5.50;;
12042;SDS011;6082;49.306;12.862;2022-09-27T16:47:32;6.77;;;4.43;;
12042;SDS011;6082;49.306;12.862;2022-09-27T16:49:58;4.20;;;3.00;;
12042;SDS011;6082;49.306;12.862;2022-09-27T16:52:42;5.67;;;3.10;;
12042;SDS011;6082;49.306;12.862;2022-09-27T16:55:12;5.07;;;2.90;;
12042;SDS011;6082;49.306;12.862;2022-09-27T16:57:39;4.80;;;2.60;;
12042;SDS011;6082;49.306;12.862;2022-09-27T17:00:06;2.40;;;1.57;;
12042;SDS011;6082;49.306;12.862;2022-09-27T17:02:32;2.97;;;1.93;;
12042;SDS011;6082;49.306;12.862;2022-09-27T17:04:58;3.00;;;1.70;;
12042;SDS011;6082;49.306;12.862;2022-09-27T17:07:25;1.80;;;1.30;;
12042;SDS011;6082;49.306;12.862;2022-09-27T17:09:51;4.37;;;1.40;;
12042;SDS011;6082;49.306;12.862;2022-09-27T17:12:17;4.00;;;1.20;;
12042;SDS011;6082;49.306;12.862;2022-09-27T17:14:46;2.10;;;1.30;;
12042;SDS011;6082;49.306;12.862;2022-09-27T17:17:12;4.80;;;2.80;;
12042;SDS011;6082;49.306;12.862;2022-09-27T17:19:38;3.37;;;1.73;;
12042;SDS011;6082;49.306;12.862;2022-09-27T17:22:07;3.60;;;2.20;;
12042;SDS011;6082;49.306;12.862;2022-09-27T17:24:33;2.07;;;1.33;;
12042;SDS011;6082;49.306;12.862;2022-09-27T17:27:00;2.53;;;1.57;;
12042;SDS011;6082;49.306;12.862;2022-09-27T17:29:26;5.33;;;2.77;;
12042;SDS011;6082;49.306;12.862;2022-09-27T17:31:52;2.80;;;1.87;;
12042;SDS011;6082;49.306;12.862;2022-09-27T17:34:18;5.90;;;2.57;;
12042;SDS011;6082;49.306;12.862;2022-09-27T17:36:45;4.90;;;2.47;;
12042;SDS011;6082;49.306;12.862;2022-09-27T17:39:14;2.70;;;2.10;;
12042;SDS011;6082;49.306;12.862;2022-09-27T17:41:41;3.13;;;2.07;;
12042;SDS011;6082;49.306;12.862;2022-09-27T17:44:08;3.03;;;2.30;;
12042;SDS011;6082;49.306;12.862;2022-09-27T17:46:36;2.70;;;1.70;;
12042;SDS011;6082;49.306;12.862;2022-09-27T17:49:02;2.87;;;2.00;;
12042;SDS011;6082;49.306;12.862;2022-09-27T17:51:48;2.57;;;2.20;;
12042;SDS011;6082;49.306;12.862;2022-09-27T17:54:15;3.07;;;2.10;;
12042;SDS011;6082;49.306;12.862;2022-09-27T17:56:43;1.70;;;1.30;;
12042;SDS011;6082;49.306;12.862;2022-09-27T17:59:09;2.23;;;1.50;;